createdAt,value
2022-12-27T00:00:08.069Z,0.00
2022-12-27T00:01:08.081Z,0.00
2022-12-27T00:02:08.061Z,0.00
2022-12-27T00:03:08.147Z,0.00
2022-12-27T00:04:08.012Z,0.00
2022-12-27T00:05:08.023Z,0.00
2022-12-27T00:06:07.996Z,0.00
2022-12-27T00:07:07.991Z,0.00
2022-12-27T00:08:07.959Z,0.00
2022-12-27T00:09:07.962Z,0.00
2022-12-27T00:10:07.959Z,0.00
2022-12-27T00:11:07.958Z,0.00
2022-12-27T00:12:07.919Z,0.00
2022-12-27T00:13:07.914Z,0.00
2022-12-27T00:14:07.889Z,0.00
2022-12-27T00:15:07.907Z,0.00
2022-12-27T00:16:07.909Z,0.00
2022-12-27T00:17:07.880Z,0.00
2022-12-27T00:18:07.845Z,0.00
2022-12-27T00:19:07.851Z,0.00
2022-12-27T00:20:11.465Z,0.00
2022-12-27T00:21:07.857Z,0.00
2022-12-27T00:22:07.800Z,0.00
2022-12-27T00:23:07.823Z,0.00
2022-12-27T00:24:07.778Z,0.00
2022-12-27T00:25:07.792Z,0.00
2022-12-27T00:26:07.760Z,0.00
2022-12-27T00:27:07.792Z,0.00
2022-12-27T00:28:07.747Z,0.00
2022-12-27T00:29:07.739Z,0.00
2022-12-27T00:30:07.768Z,0.00
2022-12-27T00:31:07.721Z,0.00
2022-12-27T00:32:07.699Z,0.00
2022-12-27T00:33:07.704Z,0.00
2022-12-27T00:34:07.699Z,0.00
2022-12-27T00:35:07.680Z,0.00
2022-12-27T00:36:07.672Z,0.00
2022-12-27T00:37:07.668Z,0.00
2022-12-27T00:38:07.649Z,0.00
2022-12-27T00:39:07.622Z,0.00
2022-12-27T00:40:07.605Z,0.00
2022-12-27T00:41:07.613Z,0.00
2022-12-27T00:42:07.589Z,0.00
2022-12-27T00:43:07.601Z,0.00
2022-12-27T00:44:07.562Z,0.00
2022-12-27T00:45:07.569Z,0.00
2022-12-27T00:46:07.597Z,0.00
2022-12-27T00:47:07.560Z,0.00
2022-12-27T00:48:07.520Z,0.00
2022-12-27T00:49:07.533Z,0.00
2022-12-27T00:50:07.499Z,0.00
2022-12-27T00:51:07.501Z,0.00
2022-12-27T00:52:07.479Z,0.00
2022-12-27T00:53:07.480Z,0.00
2022-12-27T00:54:07.456Z,0.00
2022-12-27T00:55:07.470Z,0.00
2022-12-27T00:56:07.424Z,0.00
2022-12-27T00:57:07.430Z,0.00
2022-12-27T00:58:07.404Z,0.00
2022-12-27T00:59:07.429Z,0.00
2022-12-27T01:00:10.312Z,0.00
2022-12-27T01:01:07.403Z,0.00
2022-12-27T01:02:07.393Z,0.00
2022-12-27T01:03:07.385Z,0.00
2022-12-27T01:04:07.419Z,0.00
2022-12-27T01:05:07.384Z,0.00
2022-12-27T01:06:07.376Z,0.00
2022-12-27T01:07:07.309Z,0.00
2022-12-27T01:08:07.310Z,0.00
2022-12-27T01:09:07.314Z,0.00
2022-12-27T01:10:07.286Z,0.00
2022-12-27T01:11:07.332Z,0.00
2022-12-27T01:12:07.252Z,0.00
2022-12-27T01:13:07.254Z,0.00
2022-12-27T01:14:07.238Z,0.00
2022-12-27T01:15:07.240Z,0.00
2022-12-27T01:16:07.263Z,0.00
2022-12-27T01:17:07.224Z,0.00
2022-12-27T01:18:07.203Z,0.00
2022-12-27T01:19:07.195Z,0.00
2022-12-27T01:20:07.160Z,0.00
2022-12-27T01:21:07.157Z,0.00
2022-12-27T01:22:07.147Z,0.00
2022-12-27T01:23:07.131Z,0.00
2022-12-27T01:24:07.109Z,0.00
2022-12-27T01:25:07.115Z,0.00
2022-12-27T01:26:07.091Z,0.00
2022-12-27T01:27:07.083Z,0.00
2022-12-27T01:28:07.084Z,0.00
2022-12-27T01:29:07.082Z,0.00
2022-12-27T01:30:07.043Z,0.00
2022-12-27T01:31:07.054Z,0.00
2022-12-27T01:32:07.075Z,0.00
2022-12-27T01:33:07.047Z,0.00
2022-12-27T01:34:06.992Z,0.00
2022-12-27T01:35:07.006Z,0.00
2022-12-27T01:36:06.973Z,0.00
2022-12-27T01:37:06.980Z,0.00
2022-12-27T01:38:06.957Z,0.00
2022-12-27T01:39:06.968Z,0.00
2022-12-27T01:40:06.936Z,0.00
2022-12-27T01:41:06.928Z,0.00
2022-12-27T01:42:06.903Z,0.00
2022-12-27T01:43:06.916Z,0.00
2022-12-27T01:44:06.879Z,0.00
2022-12-27T01:45:06.875Z,0.00
2022-12-27T01:46:06.950Z,0.00
2022-12-27T01:47:06.864Z,0.00
2022-12-27T01:48:06.852Z,0.00
2022-12-27T01:49:06.841Z,0.00
2022-12-27T01:50:06.831Z,0.00
2022-12-27T01:51:06.806Z,0.00
2022-12-27T01:52:06.792Z,0.00
2022-12-27T01:53:06.802Z,0.00
2022-12-27T01:54:06.782Z,0.00
2022-12-27T01:55:06.775Z,0.00
2022-12-27T01:56:06.741Z,0.00
2022-12-27T01:57:06.748Z,0.00
2022-12-27T01:58:06.723Z,0.00
2022-12-27T01:59:06.740Z,0.00
2022-12-27T02:00:06.689Z,0.00
2022-12-27T02:01:06.750Z,0.00
2022-12-27T02:02:06.874Z,0.00
2022-12-27T02:03:06.755Z,0.00
2022-12-27T02:04:06.668Z,0.00
2022-12-27T02:05:06.659Z,0.00
2022-12-27T02:06:06.621Z,0.00
2022-12-27T02:07:06.613Z,0.00
2022-12-27T02:08:06.614Z,0.00
2022-12-27T02:09:06.619Z,0.00
2022-12-27T02:10:06.592Z,0.00
2022-12-27T02:11:06.570Z,0.00
2022-12-27T02:12:06.563Z,0.00
2022-12-27T02:13:06.545Z,0.00
2022-12-27T02:14:06.557Z,0.00
2022-12-27T02:15:06.535Z,0.00
2022-12-27T02:16:06.521Z,0.00
2022-12-27T02:17:06.563Z,0.00
2022-12-27T02:18:06.513Z,0.00
2022-12-27T02:19:06.488Z,0.00
2022-12-27T02:20:06.469Z,0.00
2022-12-27T02:21:06.473Z,0.00
2022-12-27T02:22:06.449Z,0.00
2022-12-27T02:23:06.439Z,0.00
2022-12-27T02:24:06.443Z,0.00
2022-12-27T02:25:06.422Z,0.00
2022-12-27T02:26:06.414Z,0.00
2022-12-27T02:27:06.389Z,0.00
2022-12-27T02:28:06.381Z,0.00
2022-12-27T02:29:06.371Z,0.00
2022-12-27T02:30:06.365Z,0.00
2022-12-27T02:31:06.385Z,0.00
2022-12-27T02:32:06.356Z,0.00
2022-12-27T02:33:06.323Z,0.00
2022-12-27T02:34:06.324Z,0.00
2022-12-27T02:35:06.316Z,0.00
2022-12-27T02:36:06.295Z,0.00
2022-12-27T02:37:06.263Z,0.00
2022-12-27T02:38:06.269Z,0.00
2022-12-27T02:39:06.249Z,0.00
2022-12-27T02:40:06.248Z,0.00
2022-12-27T02:41:06.242Z,0.00
2022-12-27T02:42:06.226Z,0.00
2022-12-27T02:43:06.203Z,0.00
2022-12-27T02:44:06.220Z,0.00
2022-12-27T02:45:06.182Z,0.00
2022-12-27T02:46:06.184Z,0.00
2022-12-27T02:47:06.191Z,0.00
2022-12-27T02:48:06.168Z,0.00
2022-12-27T02:49:06.133Z,0.00
2022-12-27T02:50:06.137Z,0.00
2022-12-27T02:51:06.112Z,0.00
2022-12-27T02:52:06.133Z,0.00
2022-12-27T02:53:06.109Z,0.00
2022-12-27T02:54:06.100Z,0.00
2022-12-27T02:55:06.072Z,0.00
2022-12-27T02:56:06.065Z,0.00
2022-12-27T02:57:06.071Z,0.00
2022-12-27T02:58:06.047Z,0.00
2022-12-27T02:59:06.027Z,0.00
2022-12-27T03:00:06.033Z,0.00
2022-12-27T03:01:06.017Z,0.00
2022-12-27T03:02:06.102Z,0.00
2022-12-27T03:03:06.006Z,0.00
2022-12-27T03:04:05.982Z,0.00
2022-12-27T03:05:05.969Z,0.00
2022-12-27T03:06:05.960Z,0.00
2022-12-27T03:07:05.943Z,0.00
2022-12-27T03:08:05.955Z,0.00
2022-12-27T03:09:05.911Z,0.00
2022-12-27T03:10:05.926Z,0.00
2022-12-27T03:11:05.902Z,0.00
2022-12-27T03:12:05.901Z,0.00
2022-12-27T03:13:05.885Z,0.00
2022-12-27T03:14:05.875Z,0.00
2022-12-27T03:15:05.864Z,0.00
2022-12-27T03:16:05.886Z,0.00
2022-12-27T03:17:05.821Z,0.00
2022-12-27T03:18:05.822Z,0.00
2022-12-27T03:19:05.818Z,0.00
2022-12-27T03:20:05.804Z,0.00
2022-12-27T03:21:05.789Z,0.00
2022-12-27T03:22:05.787Z,0.00
2022-12-27T03:23:05.748Z,0.00
2022-12-27T03:24:05.771Z,0.00
2022-12-27T03:25:05.751Z,0.00
2022-12-27T03:26:05.738Z,0.00
2022-12-27T03:27:05.706Z,0.00
2022-12-27T03:28:05.707Z,0.00
2022-12-27T03:29:05.682Z,0.00
2022-12-27T03:30:05.725Z,0.00
2022-12-27T03:31:05.728Z,0.00
2022-12-27T03:32:05.687Z,0.00
2022-12-27T03:33:05.647Z,0.00
2022-12-27T03:34:05.658Z,0.00
2022-12-27T03:35:05.623Z,0.00
2022-12-27T03:36:05.651Z,0.00
2022-12-27T03:37:05.596Z,0.00
2022-12-27T03:38:05.834Z,0.00
2022-12-27T03:39:05.571Z,0.00
2022-12-27T03:40:05.576Z,0.00
2022-12-27T03:41:05.561Z,0.00
2022-12-27T03:42:05.569Z,0.00
2022-12-27T03:43:05.538Z,0.00
2022-12-27T03:44:05.531Z,0.00
2022-12-27T03:45:05.525Z,0.00
2022-12-27T03:46:05.580Z,0.00
2022-12-27T03:47:05.496Z,0.00
2022-12-27T03:48:05.489Z,0.00
2022-12-27T03:49:05.458Z,0.00
2022-12-27T03:50:05.484Z,0.00
2022-12-27T03:51:05.543Z,0.00
2022-12-27T03:52:05.444Z,0.00
2022-12-27T03:53:05.432Z,0.00
2022-12-27T03:54:05.419Z,0.00
2022-12-27T03:55:05.400Z,0.00
2022-12-27T03:56:05.391Z,0.00
2022-12-27T03:57:05.399Z,0.00
2022-12-27T03:58:05.393Z,0.00
2022-12-27T03:59:05.352Z,0.00
2022-12-27T04:00:05.504Z,0.00
2022-12-27T04:01:05.339Z,0.00
2022-12-27T04:02:05.479Z,0.00
2022-12-27T04:03:05.360Z,0.00
2022-12-27T04:04:05.318Z,0.00
2022-12-27T04:05:05.297Z,0.00
2022-12-27T04:06:05.283Z,0.00
2022-12-27T04:07:05.309Z,0.00
2022-12-27T04:08:05.333Z,0.00
2022-12-27T04:09:05.247Z,0.00
2022-12-27T04:10:05.292Z,0.00
2022-12-27T04:11:05.253Z,0.00
2022-12-27T04:12:05.273Z,0.00
2022-12-27T04:13:05.190Z,0.00
2022-12-27T04:14:05.214Z,0.00
2022-12-27T04:15:05.179Z,0.00
2022-12-27T04:16:05.199Z,0.00
2022-12-27T04:17:05.147Z,0.00
2022-12-27T04:18:05.175Z,0.00
2022-12-27T04:19:05.127Z,0.00
2022-12-27T04:20:05.275Z,0.00
2022-12-27T04:21:05.111Z,0.00
2022-12-27T04:22:05.113Z,0.00
2022-12-27T04:23:05.086Z,0.00
2022-12-27T04:24:05.085Z,0.00
2022-12-27T04:25:05.087Z,0.00
2022-12-27T04:26:05.062Z,0.00
2022-12-27T04:27:05.030Z,0.00
2022-12-27T04:28:05.036Z,0.00
2022-12-27T04:29:05.011Z,0.00
2022-12-27T04:30:05.025Z,0.00
2022-12-27T04:31:05.036Z,0.00
2022-12-27T04:32:04.994Z,0.00
2022-12-27T04:33:04.963Z,0.00
2022-12-27T04:34:04.980Z,0.00
2022-12-27T04:35:04.956Z,0.00
2022-12-27T04:36:06.541Z,0.00
2022-12-27T04:37:04.919Z,0.00
2022-12-27T04:38:04.922Z,0.00
2022-12-27T04:39:04.901Z,0.00
2022-12-27T04:40:04.897Z,0.00
2022-12-27T04:41:04.897Z,0.00
2022-12-27T04:42:04.884Z,0.00
2022-12-27T04:43:04.852Z,0.00
2022-12-27T04:44:04.870Z,0.00
2022-12-27T04:45:06.078Z,0.00
2022-12-27T04:46:04.878Z,0.00
2022-12-27T04:47:04.813Z,0.00
2022-12-27T04:48:04.805Z,0.00
2022-12-27T04:49:04.786Z,0.00
2022-12-27T04:50:04.791Z,0.00
2022-12-27T04:51:04.760Z,0.00
2022-12-27T04:52:04.776Z,0.00
2022-12-27T04:53:04.742Z,0.00
2022-12-27T04:54:04.755Z,0.00
2022-12-27T04:55:04.721Z,0.00
2022-12-27T04:56:04.728Z,0.00
2022-12-27T04:57:04.714Z,0.00
2022-12-27T04:58:04.699Z,0.00
2022-12-27T04:59:04.674Z,0.00
2022-12-27T05:00:04.681Z,0.00
2022-12-27T05:01:09.052Z,0.00
2022-12-27T05:02:05.939Z,0.00
2022-12-27T05:03:04.742Z,0.00
2022-12-27T05:04:04.636Z,0.00
2022-12-27T05:05:04.608Z,0.00
2022-12-27T05:06:04.612Z,0.00
2022-12-27T05:07:04.599Z,0.00
2022-12-27T05:08:04.606Z,0.00
2022-12-27T05:09:04.562Z,0.00
2022-12-27T05:10:04.574Z,0.00
2022-12-27T05:11:04.540Z,0.00
2022-12-27T05:12:04.557Z,0.00
2022-12-27T05:13:04.514Z,0.00
2022-12-27T05:14:04.514Z,0.00
2022-12-27T05:15:04.490Z,0.00
2022-12-27T05:16:04.518Z,0.00
2022-12-27T05:17:04.476Z,0.00
2022-12-27T05:18:04.495Z,0.00
2022-12-27T05:19:04.486Z,0.00
2022-12-27T05:20:04.452Z,0.00
2022-12-27T05:21:04.422Z,0.00
2022-12-27T05:22:04.428Z,0.00
2022-12-27T05:23:04.420Z,0.00
2022-12-27T05:24:05.765Z,0.00
2022-12-27T05:25:04.378Z,0.00
2022-12-27T05:26:04.381Z,0.00
2022-12-27T05:27:04.360Z,0.00
2022-12-27T05:28:04.369Z,0.00
2022-12-27T05:29:04.331Z,0.00
2022-12-27T05:30:04.340Z,0.00
2022-12-27T05:31:04.379Z,0.00
2022-12-27T05:32:09.436Z,0.00
2022-12-27T05:33:05.351Z,0.00
2022-12-27T05:34:04.293Z,0.00
2022-12-27T05:35:04.263Z,0.00
2022-12-27T05:36:04.270Z,0.00
2022-12-27T05:37:04.239Z,0.00
2022-12-27T05:38:04.252Z,0.00
2022-12-27T05:39:04.225Z,0.00
2022-12-27T05:40:04.216Z,0.00
2022-12-27T05:41:04.190Z,0.00
2022-12-27T05:42:04.196Z,0.00
2022-12-27T05:43:04.221Z,0.00
2022-12-27T05:44:07.413Z,0.00
2022-12-27T05:45:04.155Z,0.00
2022-12-27T05:46:04.163Z,0.00
2022-12-27T05:47:04.184Z,0.00
2022-12-27T05:48:04.134Z,0.00
2022-12-27T05:49:04.133Z,0.00
2022-12-27T05:50:04.100Z,0.00
2022-12-27T05:51:04.078Z,0.00
2022-12-27T05:52:04.076Z,0.00
2022-12-27T05:53:04.058Z,0.00
2022-12-27T05:54:04.083Z,0.00
2022-12-27T05:55:04.033Z,0.00
2022-12-27T05:56:04.034Z,0.00
2022-12-27T05:57:04.008Z,0.00
2022-12-27T05:58:04.024Z,0.00
2022-12-27T05:59:04.008Z,0.00
2022-12-27T06:00:03.995Z,0.00
2022-12-27T06:01:03.973Z,0.00
2022-12-27T06:02:04.148Z,0.00
2022-12-27T06:03:04.181Z,0.00
2022-12-27T06:04:03.969Z,0.00
2022-12-27T06:05:03.921Z,0.00
2022-12-27T06:06:03.930Z,0.00
2022-12-27T06:07:03.916Z,0.00
2022-12-27T06:08:03.912Z,0.00
2022-12-27T06:09:03.894Z,0.00
2022-12-27T06:10:03.893Z,0.00
2022-12-27T06:11:03.848Z,0.00
2022-12-27T06:12:03.863Z,0.00
2022-12-27T06:13:03.832Z,0.00
2022-12-27T06:14:03.831Z,0.00
2022-12-27T06:15:03.801Z,0.00
2022-12-27T06:16:03.878Z,0.00
2022-12-27T06:17:03.790Z,0.00
2022-12-27T06:18:03.779Z,0.00
2022-12-27T06:19:03.780Z,0.00
2022-12-27T06:20:03.779Z,0.00
2022-12-27T06:21:03.740Z,0.00
2022-12-27T06:22:03.754Z,0.00
2022-12-27T06:23:03.740Z,0.00
2022-12-27T06:24:03.706Z,0.00
2022-12-27T06:25:03.730Z,0.00
2022-12-27T06:26:03.682Z,0.00
2022-12-27T06:27:03.701Z,0.00
2022-12-27T06:28:03.665Z,0.00
2022-12-27T06:29:03.661Z,0.00
2022-12-27T06:30:03.630Z,0.00
2022-12-27T06:31:03.663Z,0.00
2022-12-27T06:32:03.680Z,0.00
2022-12-27T06:33:03.636Z,0.00
2022-12-27T06:34:03.591Z,0.00
2022-12-27T06:35:03.598Z,0.00
2022-12-27T06:36:03.580Z,0.00
2022-12-27T06:37:03.580Z,0.00
2022-12-27T06:38:03.550Z,0.00
2022-12-27T06:39:03.558Z,0.00
2022-12-27T06:40:03.540Z,0.00
2022-12-27T06:41:03.529Z,0.00
2022-12-27T06:42:03.527Z,0.00
2022-12-27T06:43:03.499Z,0.00
2022-12-27T06:44:03.486Z,0.00
2022-12-27T06:45:03.488Z,0.00
2022-12-27T06:46:03.481Z,0.00
2022-12-27T06:47:03.498Z,0.00
2022-12-27T06:48:03.433Z,0.00
2022-12-27T06:49:03.432Z,0.00
2022-12-27T06:50:03.419Z,0.00
2022-12-27T06:51:03.409Z,0.00
2022-12-27T06:52:03.408Z,0.00
2022-12-27T06:53:03.386Z,0.00
2022-12-27T06:54:03.369Z,0.00
2022-12-27T06:55:03.371Z,0.00
2022-12-27T06:56:03.343Z,0.00
2022-12-27T06:57:03.358Z,0.00
2022-12-27T06:58:03.314Z,0.00
2022-12-27T06:59:03.326Z,0.00
2022-12-27T07:00:03.299Z,0.00
2022-12-27T07:01:03.323Z,0.00
2022-12-27T07:02:03.391Z,0.00
2022-12-27T07:03:03.367Z,0.00
2022-12-27T07:04:03.274Z,0.00
2022-12-27T07:05:03.252Z,0.00
2022-12-27T07:06:03.221Z,0.00
2022-12-27T07:07:03.266Z,0.00
2022-12-27T07:08:03.229Z,0.00
2022-12-27T07:09:03.210Z,0.00
2022-12-27T07:10:03.177Z,0.00
2022-12-27T07:11:03.189Z,0.00
2022-12-27T07:12:03.177Z,0.00
2022-12-27T07:13:03.189Z,0.00
2022-12-27T07:14:03.143Z,0.00
2022-12-27T07:15:03.172Z,0.00
2022-12-27T07:16:03.112Z,0.00
2022-12-27T07:17:03.165Z,0.00
2022-12-27T07:18:03.103Z,0.00
2022-12-27T07:19:03.098Z,0.00
2022-12-27T07:20:03.084Z,0.00
2022-12-27T07:21:03.074Z,0.00
2022-12-27T07:22:03.079Z,0.00
2022-12-27T07:23:03.064Z,0.00
2022-12-27T07:24:03.013Z,0.00
2022-12-27T07:25:03.042Z,0.00
2022-12-27T07:26:03.011Z,0.00
2022-12-27T07:27:03.040Z,0.00
2022-12-27T07:28:02.983Z,0.00
2022-12-27T07:29:03.001Z,0.00
2022-12-27T07:30:02.958Z,0.00
2022-12-27T07:31:02.962Z,0.00
2022-12-27T07:32:02.975Z,0.00
2022-12-27T07:33:02.940Z,0.00
2022-12-27T07:34:02.934Z,0.00
2022-12-27T07:35:02.913Z,0.00
2022-12-27T07:36:02.888Z,0.00
2022-12-27T07:37:02.931Z,0.00
2022-12-27T07:38:02.863Z,0.00
2022-12-27T07:39:02.871Z,0.00
2022-12-27T07:40:02.853Z,0.00
2022-12-27T07:41:02.859Z,0.00
2022-12-27T07:42:07.940Z,0.00
2022-12-27T07:43:03.820Z,0.00
2022-12-27T07:44:02.808Z,0.00
2022-12-27T07:45:02.799Z,0.00
2022-12-27T07:46:02.798Z,0.00
2022-12-27T07:47:02.793Z,0.00
2022-12-27T07:48:02.753Z,0.00
2022-12-27T07:49:02.789Z,5.62
2022-12-27T07:50:02.740Z,5.62
2022-12-27T07:51:02.741Z,5.62
2022-12-27T07:52:02.762Z,5.62
2022-12-27T07:53:02.726Z,5.62
2022-12-27T07:54:02.703Z,11.25
2022-12-27T07:55:02.711Z,28.12
2022-12-27T07:56:02.697Z,28.12
2022-12-27T07:57:02.724Z,28.12
2022-12-27T07:58:02.679Z,45.00
2022-12-27T07:59:02.657Z,56.25
2022-12-27T08:00:02.650Z,56.25
2022-12-27T08:01:02.687Z,67.50
2022-12-27T08:02:02.742Z,73.12
2022-12-27T08:03:02.651Z,78.75
2022-12-27T08:04:02.580Z,95.62
2022-12-27T08:05:02.584Z,101.25
2022-12-27T08:06:02.562Z,106.88
2022-12-27T08:07:02.559Z,106.88
2022-12-27T08:08:02.572Z,112.50
2022-12-27T08:09:02.560Z,106.88
2022-12-27T08:10:02.529Z,90.00
2022-12-27T08:11:05.727Z,28.12
2022-12-27T08:12:02.494Z,39.38
2022-12-27T08:13:02.492Z,56.25
2022-12-27T08:14:02.468Z,73.12
2022-12-27T08:15:02.497Z,106.88
2022-12-27T08:16:02.456Z,101.25
2022-12-27T08:17:02.464Z,78.75
2022-12-27T08:18:02.429Z,22.50
2022-12-27T08:19:08.239Z,118.12
2022-12-27T08:20:03.416Z,112.50
2022-12-27T08:21:02.402Z,135.00
2022-12-27T08:22:02.372Z,61.88
2022-12-27T08:23:02.390Z,129.38
2022-12-27T08:24:02.378Z,146.25
2022-12-27T08:25:02.349Z,146.25
2022-12-27T08:26:02.340Z,140.62
2022-12-27T08:27:02.332Z,78.75
2022-12-27T08:28:02.299Z,112.50
2022-12-27T08:29:02.318Z,151.88
2022-12-27T08:30:02.282Z,151.88
2022-12-27T08:31:02.335Z,151.88
2022-12-27T08:32:02.280Z,151.88
2022-12-27T08:33:02.273Z,157.50
2022-12-27T08:34:02.236Z,157.50
2022-12-27T08:35:25.131Z,157.50
2022-12-27T08:36:11.452Z,157.50
2022-12-27T08:37:03.232Z,157.50
2022-12-27T08:38:02.215Z,163.12
2022-12-27T08:39:02.204Z,163.12
2022-12-27T08:40:03.085Z,163.12
2022-12-27T08:41:02.178Z,163.12
2022-12-27T08:42:02.162Z,163.12
2022-12-27T08:43:02.144Z,163.12
2022-12-27T08:44:02.127Z,163.12
2022-12-27T08:45:02.126Z,163.12
2022-12-27T08:46:02.137Z,163.12
2022-12-27T08:47:02.118Z,157.50
2022-12-27T08:48:02.133Z,45.00
2022-12-27T08:49:02.086Z,28.12
2022-12-27T08:50:02.086Z,28.12
2022-12-27T08:51:05.958Z,22.50
2022-12-27T08:52:03.070Z,22.50
2022-12-27T08:53:02.041Z,28.12
2022-12-27T08:54:02.026Z,84.38
2022-12-27T08:55:02.019Z,157.50
2022-12-27T08:56:01.976Z,151.88
2022-12-27T08:57:02.012Z,146.25
2022-12-27T08:58:01.983Z,146.25
2022-12-27T08:59:01.958Z,135.00
2022-12-27T09:00:01.950Z,129.38
2022-12-27T09:01:01.956Z,123.75
2022-12-27T09:02:02.011Z,118.12
2022-12-27T09:03:01.933Z,112.50
2022-12-27T09:04:01.907Z,101.25
2022-12-27T09:05:01.949Z,101.25
2022-12-27T09:06:01.880Z,90.00
2022-12-27T09:07:01.899Z,78.75
2022-12-27T09:08:01.855Z,73.12
2022-12-27T09:09:01.866Z,67.50
2022-12-27T09:10:01.827Z,67.50
2022-12-27T09:11:01.825Z,67.50
2022-12-27T09:12:04.265Z,61.88
2022-12-27T09:13:02.808Z,56.25
2022-12-27T09:14:01.797Z,50.62
2022-12-27T09:15:01.813Z,45.00
2022-12-27T09:16:01.765Z,45.00
2022-12-27T09:17:01.774Z,45.00
2022-12-27T09:18:01.728Z,45.00
2022-12-27T09:19:01.739Z,45.00
2022-12-27T09:20:01.710Z,45.00
2022-12-27T09:21:01.722Z,45.00
2022-12-27T09:22:01.710Z,45.00
2022-12-27T09:23:01.714Z,45.00
2022-12-27T09:24:01.682Z,45.00
2022-12-27T09:25:01.738Z,45.00
2022-12-27T09:26:01.647Z,45.00
2022-12-27T09:27:01.654Z,39.38
2022-12-27T09:28:01.612Z,39.38
2022-12-27T09:29:01.652Z,39.38
2022-12-27T09:30:01.619Z,45.00
2022-12-27T09:31:01.687Z,39.38
2022-12-27T09:32:01.574Z,39.38
2022-12-27T09:33:01.595Z,39.38
2022-12-27T09:34:01.569Z,39.38
2022-12-27T09:35:01.583Z,39.38
2022-12-27T09:36:01.540Z,39.38
2022-12-27T09:37:01.533Z,39.38
2022-12-27T09:38:01.519Z,39.38
2022-12-27T09:39:01.517Z,39.38
2022-12-27T09:40:01.519Z,39.38
2022-12-27T09:41:01.502Z,39.38
2022-12-27T09:43:16.346Z,33.75
2022-12-27T09:44:02.430Z,33.75
2022-12-27T09:45:01.444Z,33.75
2022-12-27T09:46:01.463Z,33.75
2022-12-27T09:47:01.435Z,33.75
2022-12-27T09:48:01.395Z,33.75
2022-12-27T09:49:01.404Z,33.75
2022-12-27T09:50:01.374Z,33.75
2022-12-27T09:51:01.393Z,33.75
2022-12-27T09:52:01.362Z,33.75
2022-12-27T09:53:01.360Z,33.75
2022-12-27T09:54:01.330Z,33.75
2022-12-27T09:55:05.047Z,33.75
2022-12-27T09:56:01.297Z,33.75
2022-12-27T09:57:19.307Z,33.75
2022-12-27T09:58:02.331Z,33.75
2022-12-27T09:59:01.286Z,33.75
2022-12-27T10:00:01.299Z,33.75
2022-12-27T10:01:01.253Z,33.75
2022-12-27T10:02:01.400Z,28.12
2022-12-27T10:03:01.247Z,28.12
2022-12-27T10:04:01.207Z,28.12
2022-12-27T10:06:02.225Z,28.12
2022-12-27T10:07:01.203Z,28.12
2022-12-27T10:08:01.164Z,28.12
2022-12-27T10:09:01.203Z,28.12
2022-12-27T10:10:01.154Z,28.12
2022-12-27T10:11:01.143Z,28.12
2022-12-27T10:12:01.126Z,28.12
2022-12-27T10:13:01.145Z,28.12
2022-12-27T10:14:01.124Z,28.12
2022-12-27T10:15:01.101Z,28.12
2022-12-27T10:16:01.140Z,28.12
2022-12-27T10:17:01.095Z,28.12
2022-12-27T10:18:01.058Z,28.12
2022-12-27T10:19:01.067Z,28.12
2022-12-27T10:20:01.047Z,28.12
2022-12-27T10:21:01.040Z,22.50
2022-12-27T10:22:01.014Z,22.50
2022-12-27T10:23:05.976Z,22.50
2022-12-27T10:24:01.977Z,22.50
2022-12-27T10:25:00.988Z,22.50
2022-12-27T10:26:00.986Z,22.50
2022-12-27T10:27:00.954Z,28.12
2022-12-27T10:28:00.936Z,28.12
2022-12-27T10:29:00.950Z,28.12
2022-12-27T10:30:00.927Z,22.50
2022-12-27T10:31:00.957Z,22.50
2022-12-27T10:32:00.893Z,22.50
2022-12-27T10:33:00.891Z,22.50
2022-12-27T10:34:01.734Z,22.50
2022-12-27T10:35:00.873Z,22.50
2022-12-27T10:36:00.867Z,22.50
2022-12-27T10:37:00.848Z,22.50
2022-12-27T10:38:00.822Z,22.50
2022-12-27T10:39:00.808Z,22.50
2022-12-27T10:40:00.819Z,22.50
2022-12-27T10:41:00.801Z,22.50
2022-12-27T10:42:00.798Z,22.50
2022-12-27T10:43:00.770Z,22.50
2022-12-27T10:44:00.768Z,22.50
2022-12-27T10:45:00.737Z,22.50
2022-12-27T10:46:00.759Z,22.50
2022-12-27T10:47:00.790Z,22.50
2022-12-27T10:48:00.716Z,22.50
2022-12-27T10:50:01.709Z,22.50
2022-12-27T10:51:00.699Z,22.50
2022-12-27T10:52:00.717Z,22.50
2022-12-27T10:53:00.647Z,22.50
2022-12-27T10:54:00.655Z,22.50
2022-12-27T10:55:00.635Z,22.50
2022-12-27T10:56:00.639Z,22.50
2022-12-27T10:57:00.616Z,22.50
2022-12-27T10:58:00.612Z,22.50
2022-12-27T10:59:00.591Z,22.50
2022-12-27T11:00:00.587Z,22.50
2022-12-27T11:01:00.642Z,22.50
2022-12-27T11:02:00.853Z,22.50
2022-12-27T11:03:00.568Z,22.50
2022-12-27T11:04:00.540Z,28.12
2022-12-27T11:05:00.507Z,28.12
2022-12-27T11:06:00.536Z,33.75
2022-12-27T11:07:00.488Z,39.38
2022-12-27T11:08:00.526Z,45.00
2022-12-27T11:09:00.468Z,45.00
2022-12-27T11:10:00.473Z,45.00
2022-12-27T11:11:00.487Z,45.00
2022-12-27T11:12:00.449Z,39.38
2022-12-27T11:13:00.450Z,39.38
2022-12-27T11:14:00.420Z,39.38
2022-12-27T11:15:00.413Z,39.38
2022-12-27T11:16:00.458Z,39.38
2022-12-27T11:17:00.373Z,39.38
2022-12-27T11:18:00.388Z,39.38
2022-12-27T11:19:00.365Z,33.75
2022-12-27T11:20:00.361Z,33.75
2022-12-27T11:21:00.332Z,33.75
2022-12-27T11:22:00.335Z,33.75
2022-12-27T11:23:00.316Z,33.75
2022-12-27T11:24:00.323Z,33.75
2022-12-27T11:25:00.303Z,33.75
2022-12-27T11:26:00.291Z,28.12
2022-12-27T11:27:00.260Z,28.12
2022-12-27T11:28:00.266Z,28.12
2022-12-27T11:29:00.250Z,28.12
2022-12-27T11:30:00.262Z,28.12
2022-12-27T11:31:00.302Z,28.12
2022-12-27T11:32:00.253Z,28.12
2022-12-27T11:33:00.201Z,28.12
2022-12-27T11:34:00.203Z,28.12
2022-12-27T11:35:00.169Z,28.12
2022-12-27T11:36:00.186Z,28.12
2022-12-27T11:37:00.142Z,28.12
2022-12-27T11:38:00.162Z,33.75
2022-12-27T11:39:00.121Z,28.12
2022-12-27T11:40:00.176Z,28.12
2022-12-27T11:41:00.103Z,28.12
2022-12-27T11:42:00.159Z,28.12
2022-12-27T11:43:00.099Z,28.12
2022-12-27T11:44:00.111Z,28.12
2022-12-27T11:45:00.085Z,28.12
2022-12-27T11:46:00.113Z,28.12
2022-12-27T11:47:00.119Z,28.12
2022-12-27T11:48:00.047Z,28.12
2022-12-27T11:49:00.014Z,28.12
2022-12-27T11:50:00.016Z,28.12
2022-12-27T11:50:59.991Z,28.12
2022-12-27T11:52:00.009Z,28.12
2022-12-27T11:52:59.986Z,22.50
2022-12-27T11:53:59.976Z,22.50
2022-12-27T11:54:59.944Z,28.12
2022-12-27T11:55:59.950Z,28.12
2022-12-27T11:56:59.929Z,22.50
2022-12-27T11:57:59.940Z,28.12
2022-12-27T11:58:59.895Z,22.50
2022-12-27T11:59:59.904Z,28.12
2022-12-27T12:01:05.290Z,22.50
2022-12-27T12:02:01.016Z,28.12
2022-12-27T12:02:59.948Z,28.12
2022-12-27T12:03:59.900Z,28.12
2022-12-27T12:04:59.831Z,28.12
2022-12-27T12:05:59.839Z,28.12
2022-12-27T12:06:59.800Z,28.12
2022-12-27T12:07:59.818Z,28.12
2022-12-27T12:08:59.782Z,28.12
2022-12-27T12:09:59.829Z,28.12
2022-12-27T12:10:59.779Z,22.50
2022-12-27T12:11:59.774Z,28.12
2022-12-27T12:12:59.750Z,28.12
2022-12-27T12:13:59.739Z,28.12
2022-12-27T12:14:59.735Z,28.12
2022-12-27T12:15:59.713Z,28.12
2022-12-27T12:16:59.691Z,28.12
2022-12-27T12:17:59.700Z,28.12
2022-12-27T12:18:59.669Z,28.12
2022-12-27T12:19:59.674Z,28.12
2022-12-27T12:20:59.668Z,28.12
2022-12-27T12:21:59.659Z,22.50
2022-12-27T12:22:59.624Z,28.12
2022-12-27T12:23:59.627Z,22.50
2022-12-27T12:24:59.620Z,28.12
2022-12-27T12:25:59.618Z,22.50
2022-12-27T12:26:59.585Z,22.50
2022-12-27T12:27:59.594Z,22.50
2022-12-27T12:29:00.583Z,22.50
2022-12-27T12:29:59.571Z,28.12
2022-12-27T12:30:59.570Z,28.12
2022-12-27T12:31:59.584Z,28.12
2022-12-27T12:32:59.526Z,28.12
2022-12-27T12:33:59.522Z,22.50
2022-12-27T12:34:59.485Z,22.50
2022-12-27T12:35:59.501Z,22.50
2022-12-27T12:36:59.490Z,22.50
2022-12-27T12:37:59.469Z,22.50
2022-12-27T12:38:59.454Z,22.50
2022-12-27T12:39:59.449Z,22.50
2022-12-27T12:40:59.422Z,22.50
2022-12-27T12:41:59.426Z,22.50
2022-12-27T12:42:59.425Z,28.12
2022-12-27T12:43:59.417Z,28.12
2022-12-27T12:44:59.389Z,28.12
2022-12-27T12:45:59.419Z,28.12
2022-12-27T12:46:59.368Z,28.12
2022-12-27T12:47:59.360Z,28.12
2022-12-27T12:48:59.334Z,28.12
2022-12-27T12:49:59.329Z,28.12
2022-12-27T12:50:59.303Z,28.12
2022-12-27T12:51:59.328Z,28.12
2022-12-27T12:52:59.290Z,28.12
2022-12-27T12:53:59.286Z,28.12
2022-12-27T12:54:59.269Z,28.12
2022-12-27T12:55:59.267Z,28.12
2022-12-27T12:56:59.250Z,28.12
2022-12-27T12:57:59.245Z,28.12
2022-12-27T12:58:59.230Z,28.12
2022-12-27T12:59:59.225Z,28.12
2022-12-27T13:00:59.267Z,28.12
2022-12-27T13:01:59.427Z,28.12
2022-12-27T13:02:59.444Z,28.12
2022-12-27T13:03:59.179Z,28.12
2022-12-27T13:04:59.157Z,28.12
2022-12-27T13:05:59.180Z,28.12
2022-12-27T13:06:59.165Z,28.12
2022-12-27T13:07:59.141Z,28.12
2022-12-27T13:08:59.137Z,28.12